Time;durP1;ratioP1;P1;durP2;ratioP2;P2;SDS_P1;SDS_P2;PMS_P1;PMS_P2;Temp;Humidity;BMP_temperature;BMP_pressure;BME280_temperature;BME280_humidity;BME280_pressure;Samples;Min_cycle;Max_cycle;Signal;HPM_P1;HPM_P2
2022/04/15 00:01:30;;;;;;;3.55;1.85;;;18.70;60.40;;;;;;4890986;28;99084;-67
2022/04/15 00:03:56;;;;;;;3.17;1.83;;;18.70;60.40;;;;;;4890502;28;100226;-67
2022/04/15 00:06:24;;;;;;;3.10;1.90;;;18.70;60.40;;;;;;4891143;28;99069;-67
2022/04/15 00:08:50;;;;;;;2.22;1.70;;;18.60;60.30;;;;;;4891854;28;98633;-66
2022/04/15 00:11:16;;;;;;;2.58;1.60;;;18.70;60.40;;;;;;4890963;28;99143;-66
2022/04/15 00:13:42;;;;;;;3.17;1.70;;;18.60;60.30;;;;;;4890288;28;99993;-67
2022/04/15 00:16:09;;;;;;;2.67;1.90;;;18.70;60.40;;;;;;4890854;28;99610;-67
2022/04/15 00:18:36;;;;;;;2.80;1.70;;;18.60;60.30;;;;;;4890009;28;98673;-66
2022/04/15 00:21:02;;;;;;;3.30;1.60;;;18.60;60.30;;;;;;4889779;28;98552;-67
2022/04/15 00:23:30;;;;;;;3.08;1.92;;;18.60;60.40;;;;;;4889628;28;99382;-69
2022/04/15 00:25:56;;;;;;;3.30;1.80;;;18.70;60.30;;;;;;4888942;28;100102;-67
2022/04/15 00:28:22;;;;;;;2.15;1.40;;;18.60;60.30;;;;;;4888620;28;98662;-66
2022/04/15 00:30:49;;;;;;;3.17;1.88;;;18.60;60.30;;;;;;4889838;28;98405;-67
2022/04/15 00:33:15;;;;;;;3.10;1.80;;;18.60;60.20;;;;;;4890237;28;114437;-66
2022/04/15 00:35:41;;;;;;;4.32;2.30;;;18.60;60.20;;;;;;4893128;28;99426;-66
2022/04/15 00:38:06;;;;;;;1.73;1.60;;;18.60;60.20;;;;;;4892109;28;100222;-66
2022/04/15 00:40:32;;;;;;;4.32;2.17;;;18.60;60.30;;;;;;4893670;28;99262;-67
2022/04/15 00:42:58;;;;;;;4.18;1.90;;;18.60;60.30;;;;;;4892501;28;100329;-67
2022/04/15 00:45:23;;;;;;;2.47;1.70;;;18.60;60.20;;;;;;4892706;28;108303;-68
2022/04/15 00:47:53;;;;;;;1.85;1.55;;;18.60;60.20;;;;;;4893109;28;98660;-67
2022/04/15 00:50:21;;;;;;;3.10;1.83;;;18.60;60.20;;;;;;4892452;28;99026;-66
2022/04/15 00:52:50;;;;;;;3.70;1.90;;;18.60;60.20;;;;;;4892284;28;99439;-67
2022/04/15 00:55:17;;;;;;;3.53;1.67;;;18.60;60.10;;;;;;4892293;28;99980;-66
2022/04/15 00:57:50;;;;;;;2.10;1.75;;;18.60;60.20;;;;;;4892426;28;99091;-67
2022/04/15 01:00:16;;;;;;;2.97;1.70;;;18.60;60.10;;;;;;4892580;28;98933;-66
2022/04/15 01:02:43;;;;;;;2.65;1.70;;;18.50;60.10;;;;;;4892164;28;100800;-67
2022/04/15 01:05:10;;;;;;;2.10;1.52;;;18.50;60.10;;;;;;4874109;28;101307;-67
2022/04/15 01:07:38;;;;;;;2.10;1.65;;;18.60;60.10;;;;;;4892792;28;99110;-67
2022/04/15 01:10:09;;;;;;;2.13;1.58;;;18.60;60.10;;;;;;4892257;28;98600;-67
2022/04/15 01:12:39;;;;;;;1.65;1.50;;;18.50;60.10;;;;;;4891408;28;102461;-67
2022/04/15 01:15:07;;;;;;;1.70;1.45;;;18.60;60.10;;;;;;4891752;28;100063;-67
2022/04/15 01:17:34;;;;;;;1.75;1.50;;;18.50;60.10;;;;;;4892710;28;98762;-67
2022/04/15 01:20:01;;;;;;;2.55;1.50;;;18.50;60.00;;;;;;4892115;28;98795;-68
2022/04/15 01:22:41;;;;;;;2.42;1.65;;;18.60;60.10;;;;;;4892172;28;100282;-67
2022/04/15 01:25:09;;;;;;;2.28;1.60;;;18.50;60.00;;;;;;4893067;28;99906;-68
2022/04/15 01:27:37;;;;;;;3.28;1.65;;;18.50;60.10;;;;;;4892032;28;99403;-68
2022/04/15 01:30:11;;;;;;;2.33;1.95;;;18.50;60.00;;;;;;4892830;28;98572;-67
2022/04/15 01:32:36;;;;;;;3.25;1.58;;;18.60;60.00;;;;;;4890567;28;100322;-67
2022/04/15 01:35:02;;;;;;;3.55;1.60;;;18.50;60.00;;;;;;4891871;28;99281;-68
2022/04/15 01:37:30;;;;;;;2.22;1.70;;;18.50;60.00;;;;;;4891089;28;98619;-68
2022/04/15 01:39:56;;;;;;;2.67;1.70;;;18.50;60.10;;;;;;4892269;28;99052;-67
2022/04/15 01:42:22;;;;;;;2.70;1.70;;;18.50;60.00;;;;;;4892133;28;99290;-68
2022/04/15 01:44:49;;;;;;;2.20;1.50;;;18.50;60.00;;;;;;4890622;28;98602;-67
2022/04/15 01:47:16;;;;;;;3.38;1.63;;;18.50;60.00;;;;;;4891733;28;99315;-68
2022/04/15 01:49:42;;;;;;;2.40;1.60;;;18.50;59.90;;;;;;4891532;28;98904;-66
2022/04/15 01:52:08;;;;;;;2.88;1.67;;;18.50;59.90;;;;;;4890990;28;101641;-67
2022/04/15 01:54:34;;;;;;;3.30;1.77;;;18.50;59.90;;;;;;4891952;28;99501;-67
2022/04/15 01:57:07;;;;;;;1.40;1.30;;;18.50;59.90;;;;;;4893757;28;98632;-68
2022/04/15 01:59:34;;;;;;;2.70;1.40;;;18.50;59.90;;;;;;4897022;28;98607;-67
2022/04/15 02:02:00;;;;;;;2.05;1.55;;;18.50;59.90;;;;;;4894036;28;100384;-67
2022/04/15 02:04:26;;;;;;;2.95;1.75;;;18.50;60.00;;;;;;4891894;28;99272;-67
2022/04/15 02:06:52;;;;;;;2.13;1.33;;;18.40;59.90;;;;;;4891950;28;99021;-67
2022/04/15 02:09:18;;;;;;;2.13;1.50;;;18.50;59.90;;;;;;4891604;28;98295;-67
2022/04/15 02:11:44;;;;;;;3.42;1.77;;;18.50;59.90;;;;;;4890991;28;99684;-67
2022/04/15 02:14:10;;;;;;;2.20;1.60;;;18.40;59.80;;;;;;4890920;28;100132;-67
2022/04/15 02:16:36;;;;;;;3.13;1.50;;;18.40;59.80;;;;;;4873825;28;99946;-67
2022/04/15 02:19:02;;;;;;;3.90;1.40;;;18.40;59.90;;;;;;4892259;28;98663;-67
2022/04/15 02:21:28;;;;;;;1.80;1.50;;;18.50;59.90;;;;;;4890579;28;103300;-68
2022/04/15 02:23:54;;;;;;;2.33;1.50;;;18.40;59.80;;;;;;4892012;28;99976;-68
2022/04/15 02:26:19;;;;;;;1.65;1.40;;;18.40;59.80;;;;;;4890663;28;99442;-67
2022/04/15 02:28:45;;;;;;;2.50;1.52;;;18.40;59.90;;;;;;4891178;28;98871;-67
2022/04/15 02:31:11;;;;;;;2.20;1.40;;;18.40;59.90;;;;;;4891034;28;99703;-68
2022/04/15 02:33:36;;;;;;;1.80;1.40;;;18.40;59.90;;;;;;4891159;28;99386;-67
2022/04/15 02:36:02;;;;;;;2.80;1.40;;;18.40;59.90;;;;;;4891517;28;98588;-67
2022/04/15 02:38:29;;;;;;;2.30;1.30;;;18.40;59.80;;;;;;4891982;28;99053;-67
2022/04/15 02:40:54;;;;;;;2.03;1.40;;;18.40;59.80;;;;;;4891487;28;100668;-68
2022/04/15 02:43:20;;;;;;;2.40;1.60;;;18.40;59.80;;;;;;4890505;28;99948;-67
2022/04/15 02:45:47;;;;;;;2.20;1.35;;;18.40;59.80;;;;;;4891642;28;98993;-67
2022/04/15 02:48:13;;;;;;;2.80;1.50;;;18.40;59.80;;;;;;4890806;28;98638;-68
2022/04/15 02:50:39;;;;;;;2.03;1.48;;;18.40;59.80;;;;;;4891236;28;99483;-67
2022/04/15 02:53:06;;;;;;;1.98;1.50;;;18.40;59.80;;;;;;4890950;28;100655;-68
2022/04/15 02:55:32;;;;;;;2.67;1.40;;;18.40;59.90;;;;;;4891393;28;99285;-67
2022/04/15 02:57:59;;;;;;;1.85;1.15;;;18.40;59.80;;;;;;4891417;28;98471;-67
2022/04/15 03:00:24;;;;;;;1.98;1.35;;;18.40;59.80;;;;;;4890572;28;112124;-67
2022/04/15 03:02:50;;;;;;;2.22;1.35;;;18.30;59.70;;;;;;4890892;28;99307;-67
2022/04/15 03:05:16;;;;;;;1.63;1.30;;;18.30;59.80;;;;;;4890356;28;99439;-67
2022/04/15 03:07:41;;;;;;;2.50;1.40;;;18.30;59.70;;;;;;4891049;28;98572;-67
2022/04/15 03:10:07;;;;;;;2.95;1.40;;;18.30;59.90;;;;;;4890242;28;99312;-68
2022/04/15 03:12:37;;;;;;;1.95;1.33;;;18.30;59.70;;;;;;4890678;28;100717;-67
2022/04/15 03:15:05;;;;;;;2.30;1.60;;;18.30;59.70;;;;;;4891180;28;99109;-68
2022/04/15 04:18:46;;;;;;;1.63;1.27;;;18.20;59.60;;;;;;5190492;23;101393;-66
2022/04/15 04:21:12;;;;;;;2.13;1.40;;;18.20;59.60;;;;;;4909749;28;98950;-67
2022/04/15 04:23:38;;;;;;;1.40;1.17;;;18.20;59.60;;;;;;4909177;28;99338;-67
2022/04/15 04:26:04;;;;;;;1.63;1.20;;;18.20;59.50;;;;;;4909716;28;99007;-66
2022/04/15 04:28:31;;;;;;;1.58;1.20;;;18.20;59.50;;;;;;4909388;28;100982;-68
2022/04/15 04:30:56;;;;;;;1.70;1.40;;;18.20;59.40;;;;;;4909429;28;100831;-68
2022/04/15 04:33:22;;;;;;;2.35;1.30;;;18.20;59.40;;;;;;4910224;28;98514;-68
2022/04/15 04:35:49;;;;;;;2.17;1.40;;;18.20;59.40;;;;;;4910993;28;98983;-68
2022/04/15 04:38:15;;;;;;;2.05;1.20;;;18.20;59.40;;;;;;4909521;28;98710;-67
2022/04/15 04:40:41;;;;;;;1.27;1.08;;;18.20;59.40;;;;;;4908820;28;99815;-67
2022/04/15 04:43:08;;;;;;;10.13;1.60;;;18.20;59.40;;;;;;4910084;28;98732;-67
2022/04/15 04:45:35;;;;;;;1.65;1.10;;;18.20;59.40;;;;;;4909207;28;97825;-67
2022/04/15 04:48:03;;;;;;;2.10;1.30;;;18.10;59.30;;;;;;4910213;28;99186;-67
2022/04/15 04:50:30;;;;;;;1.88;1.10;;;18.20;59.30;;;;;;4908138;28;100526;-67
2022/04/15 04:52:56;;;;;;;2.15;1.17;;;18.20;59.20;;;;;;4909026;28;99301;-67
2022/04/15 04:55:22;;;;;;;2.78;1.30;;;18.20;59.30;;;;;;4909090;28;98611;-67
2022/04/15 04:57:48;;;;;;;1.90;1.30;;;18.20;59.10;;;;;;4908908;28;99154;-67
2022/04/15 05:00:16;;;;;;;2.00;1.25;;;18.30;59.10;;;;;;4909455;28;99172;-67
2022/04/15 05:02:43;;;;;;;2.13;1.40;;;18.30;59.20;;;;;;4909417;28;99059;-67
2022/04/15 05:05:10;;;;;;;2.85;1.33;;;18.30;59.10;;;;;;4909248;28;98798;-67
2022/04/15 05:07:36;;;;;;;1.65;1.05;;;18.30;59.20;;;;;;4907856;28;101523;-68
2022/04/15 05:10:05;;;;;;;2.75;1.50;;;18.30;59.20;;;;;;4908789;28;98744;-68
2022/04/15 05:12:30;;;;;;;3.80;1.35;;;18.30;59.10;;;;;;4908883;28;98915;-68
2022/04/15 05:14:56;;;;;;;2.25;1.25;;;18.30;59.10;;;;;;4908966;28;98703;-70
2022/04/15 05:17:21;;;;;;;2.35;1.30;;;18.30;59.20;;;;;;4907576;28;110904;-70
2022/04/15 05:19:47;;;;;;;2.38;1.33;;;18.30;59.20;;;;;;4911167;28;107989;-66
2022/04/15 05:22:13;;;;;;;1.45;1.20;;;18.30;59.20;;;;;;4912513;28;98695;-66
2022/04/15 05:24:39;;;;;;;1.50;1.23;;;18.30;59.10;;;;;;4912017;28;99144;-66
2022/04/15 05:27:05;;;;;;;2.47;1.40;;;18.30;59.10;;;;;;4910985;28;100288;-66
2022/04/15 05:29:31;;;;;;;2.42;1.30;;;18.40;59.30;;;;;;4911342;28;98827;-66
2022/04/15 05:31:56;;;;;;;2.17;1.27;;;18.40;59.50;;;;;;4912460;28;98614;-66
2022/04/15 05:34:22;;;;;;;1.70;1.30;;;18.40;59.40;;;;;;4912190;28;98297;-66
2022/04/15 05:36:48;;;;;;;2.35;1.30;;;18.40;59.40;;;;;;4911585;28;101459;-69
2022/04/15 05:39:13;;;;;;;2.28;1.30;;;18.40;59.50;;;;;;4910181;28;98641;-68
2022/04/15 05:41:39;;;;;;;2.10;1.40;;;18.40;59.40;;;;;;4910246;28;99356;-69
2022/04/15 05:44:05;;;;;;;2.97;1.20;;;18.40;59.40;;;;;;4911462;28;99070;-69
2022/04/15 05:46:31;;;;;;;2.05;1.30;;;18.40;59.50;;;;;;4911130;28;99012;-67
2022/04/15 05:48:56;;;;;;;7.53;1.30;;;18.40;59.80;;;;;;4909924;28;99054;-72
2022/04/15 05:51:22;;;;;;;4.22;1.30;;;18.40;59.80;;;;;;4910810;28;98801;-68
2022/04/15 05:53:48;;;;;;;1.55;1.10;;;18.40;60.00;;;;;;4910965;28;99209;-70
2022/04/15 05:56:13;;;;;;;4.72;1.40;;;18.30;60.00;;;;;;4910881;28;100212;-70
2022/04/15 05:58:40;;;;;;;2.58;1.33;;;18.40;60.00;;;;;;4911680;28;98421;-70
2022/04/15 06:01:15;;;;;;;4.88;1.50;;;18.40;59.90;;;;;;4914030;28;98907;-71
2022/04/15 06:03:40;;;;;;;17.88;2.22;;;18.40;59.80;;;;;;4917473;28;98974;-69
2022/04/15 06:06:06;;;;;;;16.50;2.00;;;18.40;60.00;;;;;;4911530;28;100362;-69
2022/04/15 06:08:32;;;;;;;4.60;1.77;;;18.40;60.20;;;;;;4909910;28;101808;-69
2022/04/15 06:10:59;;;;;;;5.35;1.90;;;18.40;60.10;;;;;;4910320;28;98959;-70
2022/04/15 06:13:25;;;;;;;6.20;2.03;;;18.50;60.00;;;;;;4911098;28;99081;-69
2022/04/15 06:15:57;;;;;;;5.13;1.77;;;18.50;59.90;;;;;;4911197;28;99016;-69
2022/04/15 06:18:24;;;;;;;5.75;1.95;;;18.50;59.80;;;;;;4910269;28;99985;-69
2022/04/15 06:20:50;;;;;;;5.10;1.85;;;18.60;59.90;;;;;;4910571;28;100407;-69
2022/04/15 06:23:18;;;;;;;4.63;1.98;;;18.60;60.10;;;;;;4911491;28;97964;-69
2022/04/15 06:25:45;;;;;;;12.95;2.00;;;18.70;60.40;;;;;;4909996;28;100411;-68
2022/04/15 06:28:11;;;;;;;4.65;1.70;;;18.70;60.20;;;;;;4910363;28;98909;-69
2022/04/15 06:30:37;;;;;;;4.75;1.90;;;18.70;60.20;;;;;;4908898;28;99255;-69
2022/04/15 06:33:08;;;;;;;6.82;1.75;;;18.70;60.20;;;;;;4910533;28;98638;-69
2022/04/15 06:35:36;;;;;;;5.20;1.90;;;18.70;60.30;;;;;;4909878;28;99007;-68
2022/04/15 06:38:02;;;;;;;7.35;1.90;;;18.80;60.30;;;;;;4910876;28;100218;-68
2022/04/15 06:40:28;;;;;;;5.30;2.22;;;18.80;60.30;;;;;;4909942;28;99215;-77
2022/04/15 06:42:54;;;;;;;3.97;2.03;;;18.80;60.30;;;;;;4911081;28;98881;-68
2022/04/15 06:45:19;;;;;;;4.65;1.80;;;18.80;60.30;;;;;;4910413;28;99813;-67
2022/04/15 06:47:45;;;;;;;12.27;2.13;;;18.80;60.30;;;;;;4909543;28;99899;-68
2022/04/15 06:50:10;;;;;;;13.02;2.20;;;18.80;60.30;;;;;;4910911;28;98899;-68
2022/04/15 06:52:37;;;;;;;34.72;3.28;;;18.80;60.40;;;;;;4910152;28;99189;-66
2022/04/15 06:55:04;;;;;;;20.00;2.60;;;18.90;60.70;;;;;;4908384;28;101104;-67
2022/04/15 06:57:31;;;;;;;32.63;2.90;;;18.90;60.60;;;;;;4908674;28;100894;-66
2022/04/15 06:59:58;;;;;;;21.33;2.45;;;18.90;61.00;;;;;;4909525;28;98872;-67
2022/04/15 07:02:25;;;;;;;26.48;2.63;;;19.00;60.80;;;;;;4910246;28;98926;-66
2022/04/15 07:04:50;;;;;;;21.23;2.35;;;19.00;60.80;;;;;;4909410;28;100627;-67
2022/04/15 07:07:17;;;;;;;18.60;2.75;;;19.10;60.90;;;;;;4909562;28;99121;-69
2022/04/15 07:09:44;;;;;;;20.27;2.85;;;19.10;60.70;;;;;;4910314;28;98845;-67
2022/04/15 07:12:10;;;;;;;35.75;3.58;;;19.10;60.80;;;;;;4911077;28;97961;-67
2022/04/15 07:14:36;;;;;;;35.97;3.67;;;19.10;60.90;;;;;;4909045;28;99055;-66
2022/04/15 07:17:01;;;;;;;21.85;2.50;;;19.10;62.10;;;;;;4910050;28;99890;-69
2022/04/15 07:19:27;;;;;;;16.52;2.65;;;19.10;60.90;;;;;;4908602;28;99376;-67
2022/04/15 07:21:52;;;;;;;32.90;3.25;;;19.10;61.00;;;;;;4909271;28;98631;-67
2022/04/15 07:24:18;;;;;;;14.65;2.92;;;19.10;61.00;;;;;;4908845;28;104411;-67
2022/04/15 07:26:45;;;;;;;25.35;3.38;;;19.10;60.90;;;;;;4908237;28;100174;-67
2022/04/15 07:29:11;;;;;;;34.03;3.17;;;19.10;61.10;;;;;;4909310;28;99020;-66
2022/04/15 07:31:38;;;;;;;23.60;2.70;;;19.10;61.30;;;;;;4909939;28;99091;-66
2022/04/15 07:34:06;;;;;;;14.90;2.63;;;19.10;61.30;;;;;;4908981;28;101167;-67
2022/04/15 07:36:42;;;;;;;28.40;3.58;;;19.00;61.10;;;;;;4909872;28;99388;-67
2022/04/15 07:39:09;;;;;;;23.00;3.30;;;19.10;61.30;;;;;;4910210;28;98993;-68
2022/04/15 07:41:38;;;;;;;25.63;2.88;;;19.10;61.40;;;;;;4908789;28;99105;-68
2022/04/15 07:44:08;;;;;;;18.85;2.20;;;19.00;62.20;;;;;;4911438;28;100648;-68
2022/04/15 07:46:35;;;;;;;16.00;2.90;;;19.00;61.00;;;;;;4912667;28;100720;-68
2022/04/15 07:49:01;;;;;;;14.80;2.47;;;19.00;61.00;;;;;;4914014;28;99058;-68
2022/04/15 07:51:28;;;;;;;16.00;3.10;;;19.00;60.80;;;;;;4914338;28;99075;-67
2022/04/15 07:53:53;;;;;;;22.80;3.28;;;18.90;60.80;;;;;;4908351;28;101345;-66
2022/04/15 07:56:19;;;;;;;16.27;2.72;;;18.90;60.80;;;;;;4908736;28;99906;-66
2022/04/15 07:58:45;;;;;;;16.42;2.80;;;18.90;61.00;;;;;;4909012;28;100271;-66
2022/04/15 08:01:10;;;;;;;16.05;3.05;;;18.90;60.90;;;;;;4910360;28;98125;-66
2022/04/15 08:03:39;;;;;;;18.92;2.90;;;18.80;60.80;;;;;;4909850;28;100786;-66
2022/04/15 08:06:05;;;;;;;16.65;3.13;;;18.80;60.80;;;;;;4910280;28;98891;-66
2022/04/15 08:08:31;;;;;;;16.38;2.55;;;18.80;60.90;;;;;;4909034;28;100233;-66
2022/04/15 08:10:57;;;;;;;14.48;2.97;;;18.80;60.80;;;;;;4909315;28;99010;-67
2022/04/15 08:13:23;;;;;;;10.43;2.72;;;18.80;60.70;;;;;;4908688;28;100289;-67
2022/04/15 08:15:53;;;;;;;13.90;2.80;;;18.80;60.70;;;;;;4909661;28;98804;-66
2022/04/15 08:18:22;;;;;;;12.55;2.63;;;18.70;60.70;;;;;;4908917;28;98670;-66
2022/04/15 08:20:50;;;;;;;16.13;2.70;;;18.70;60.70;;;;;;4910055;28;98542;-67
2022/04/15 08:23:16;;;;;;;17.63;3.30;;;18.70;60.70;;;;;;4909329;28;99713;-66
2022/04/15 08:25:43;;;;;;;14.75;2.80;;;18.70;60.60;;;;;;4909948;28;100031;-66
2022/04/15 08:28:10;;;;;;;10.48;2.60;;;18.70;60.60;;;;;;4909280;28;98547;-66
2022/04/15 08:30:37;;;;;;;9.77;2.85;;;18.70;60.50;;;;;;4908734;28;99886;-66
2022/04/15 08:33:05;;;;;;;8.43;3.05;;;18.70;60.50;;;;;;4908589;28;101949;-67
2022/04/15 08:35:32;;;;;;;14.48;2.95;;;18.60;60.50;;;;;;4909346;28;101167;-67
2022/04/15 08:37:58;;;;;;;9.75;3.20;;;18.60;60.50;;;;;;4909636;28;98931;-66
2022/04/15 08:40:27;;;;;;;12.98;3.20;;;18.60;60.50;;;;;;4908148;28;98719;-67
2022/04/15 08:42:53;;;;;;;11.77;3.70;;;18.60;60.50;;;;;;4908215;28;100154;-67
2022/04/15 08:45:21;;;;;;;7.20;3.03;;;18.60;60.40;;;;;;4908567;28;98828;-67
2022/04/15 08:47:48;;;;;;;8.18;3.03;;;18.60;60.40;;;;;;4909692;28;99012;-66
2022/04/15 08:50:14;;;;;;;12.05;3.47;;;18.60;60.30;;;;;;4908811;28;98247;-66
2022/04/15 08:52:41;;;;;;;10.35;3.17;;;18.50;60.30;;;;;;4908605;28;101433;-66
2022/04/15 08:55:07;;;;;;;22.55;4.20;;;18.60;60.30;;;;;;4912081;28;99996;-67
2022/04/15 08:57:33;;;;;;;18.58;3.90;;;18.50;60.40;;;;;;4912433;28;99629;-68
2022/04/15 08:59:59;;;;;;;21.63;3.75;;;18.50;60.50;;;;;;4912779;28;98596;-69
2022/04/15 09:02:33;;;;;;;35.42;4.88;;;18.50;60.60;;;;;;4912499;28;99726;-68
2022/04/15 09:05:03;;;;;;;31.40;4.40;;;18.60;60.90;;;;;;4912024;28;100121;-67
2022/04/15 09:07:31;;;;;;;44.83;5.70;;;18.60;61.00;;;;;;4912057;28;98587;-69
2022/04/15 09:09:58;;;;;;;54.58;5.38;;;18.70;61.20;;;;;;4913223;28;99077;-68
2022/04/15 09:12:28;;;;;;;54.90;6.53;;;18.70;61.40;;;;;;4911889;28;100185;-66
2022/04/15 09:14:58;;;;;;;62.30;5.85;;;18.70;61.50;;;;;;4913269;28;99519;-65
2022/04/15 09:17:27;;;;;;;47.17;5.68;;;18.70;61.70;;;;;;4912187;28;99128;-67
2022/04/15 09:19:53;;;;;;;68.75;6.75;;;18.80;61.90;;;;;;4911270;28;99200;-67
2022/04/15 09:22:19;;;;;;;51.25;5.93;;;18.80;61.90;;;;;;4910488;28;100646;-68
2022/04/15 09:24:46;;;;;;;65.72;6.35;;;18.80;62.00;;;;;;4910865;28;100674;-67
2022/04/15 09:27:12;;;;;;;67.22;6.13;;;18.80;62.10;;;;;;4912732;28;99175;-67
2022/04/15 09:29:40;;;;;;;92.57;7.70;;;18.80;62.40;;;;;;4913641;28;99241;-68
2022/04/15 09:32:10;;;;;;;76.45;7.00;;;18.90;62.60;;;;;;4912620;28;99789;-68
2022/04/15 09:35:00;;;;;;;62.90;6.85;;;18.80;62.80;;;;;;4912084;28;100116;-67
2022/04/15 09:37:29;;;;;;;59.13;6.90;;;18.90;63.20;;;;;;4911350;28;99378;-68
2022/04/15 09:40:16;;;;;;;67.45;6.05;;;18.90;63.30;;;;;;4911545;28;98857;-66
2022/04/15 09:42:53;;;;;;;78.88;7.40;;;18.90;64.00;;;;;;4910882;28;100270;-67
2022/04/15 09:45:24;;;;;;;80.35;6.93;;;18.90;64.10;;;;;;4911391;28;99053;-67
2022/04/15 09:47:54;;;;;;;41.30;5.97;;;18.90;64.10;;;;;;4910440;28;100571;-67
2022/04/15 09:50:37;;;;;;;68.85;7.15;;;18.90;63.80;;;;;;4910654;28;98748;-66
2022/04/15 09:53:20;;;;;;;70.57;7.13;;;18.90;64.60;;;;;;4894675;28;100379;-67
2022/04/15 09:55:48;;;;;;;58.22;6.95;;;18.90;65.50;;;;;;4911193;28;100083;-67
2022/04/15 09:58:16;;;;;;;54.90;6.93;;;19.00;65.30;;;;;;4911511;28;98940;-67
2022/04/15 10:00:45;;;;;;;46.83;5.72;;;18.90;65.00;;;;;;4911190;28;100511;-69
2022/04/15 10:03:15;;;;;;;54.05;6.55;;;18.90;64.90;;;;;;4910066;28;100941;-67
2022/04/15 10:05:42;;;;;;;51.38;6.22;;;18.90;64.80;;;;;;4909701;28;99756;-67
2022/04/15 10:08:09;;;;;;;52.13;5.72;;;18.90;65.20;;;;;;4911182;28;98842;-67
2022/04/15 10:10:34;;;;;;;55.28;6.25;;;18.90;64.90;;;;;;4911261;28;99152;-65
2022/04/15 10:13:05;;;;;;;77.50;6.80;;;18.90;65.10;;;;;;4909999;28;100545;-66
2022/04/15 10:15:37;;;;;;;56.17;6.85;;;18.90;65.30;;;;;;4909484;28;99644;-66
2022/04/15 10:18:03;;;;;;;44.13;7.07;;;18.90;64.90;;;;;;4909965;28;98672;-68
2022/04/15 10:20:30;;;;;;;44.08;5.75;;;18.90;65.00;;;;;;4909602;28;99082;-67
2022/04/15 10:23:00;;;;;;;37.83;5.53;;;18.90;66.40;;;;;;4909034;28;99556;-67
2022/04/15 10:25:27;;;;;;;36.65;5.90;;;18.90;67.00;;;;;;4910377;28;99403;-68
2022/04/15 10:28:03;;;;;;;37.30;5.22;;;19.00;67.10;;;;;;4909718;28;98636;-66
2022/04/15 10:30:28;;;;;;;31.80;4.97;;;19.00;67.10;;;;;;4910183;28;98024;-67
2022/04/15 10:32:57;;;;;;;43.80;5.47;;;19.10;67.10;;;;;;4909091;28;99434;-67
2022/04/15 10:35:28;;;;;;;43.45;5.22;;;19.10;67.10;;;;;;4909755;28;99968;-67
2022/04/15 10:38:02;;;;;;;31.55;5.30;;;19.10;67.10;;;;;;4909468;28;99401;-66
2022/04/15 10:40:33;;;;;;;31.75;4.88;;;19.10;67.10;;;;;;4910024;28;98952;-67
2022/04/15 10:43:22;;;;;;;30.58;4.90;;;19.10;67.00;;;;;;4909848;28;99488;-66
2022/04/15 10:45:51;;;;;;;37.75;5.10;;;19.10;66.90;;;;;;4909151;28;100167;-66
2022/04/15 10:48:31;;;;;;;24.33;5.35;;;19.20;67.00;;;;;;4909452;28;98566;-67
2022/04/15 10:51:11;;;;;;;32.85;5.05;;;19.10;66.90;;;;;;4910140;28;99254;-69
2022/04/15 10:53:38;;;;;;;21.30;4.60;;;19.10;67.00;;;;;;4891419;28;100639;-65
2022/04/15 10:56:08;;;;;;;26.13;4.82;;;19.10;67.70;;;;;;4909596;28;100092;-67
2022/04/15 11:02:02;;;;;;;32.83;4.53;;;19.10;67.20;;;;;;4897449;28;98727;-68
2022/04/15 11:04:35;;;;;;;18.98;4.47;;;19.10;66.40;;;;;;4908511;28;101311;-67
2022/04/15 11:07:36;;;;;;;24.80;4.78;;;19.10;66.40;;;;;;4909583;28;100067;-68
2022/04/15 11:10:02;;;;;;;24.25;4.47;;;19.10;66.40;;;;;;4897072;28;98766;-66
2022/04/15 11:12:33;;;;;;;32.42;4.72;;;19.00;66.10;;;;;;4908912;28;98633;-68
2022/04/15 11:14:59;;;;;;;31.77;5.10;;;19.00;65.70;;;;;;4909979;28;99256;-67
2022/04/15 11:17:52;;;;;;;18.92;4.43;;;18.90;65.60;;;;;;4909769;28;98639;-67
2022/04/15 11:20:18;;;;;;;19.03;4.10;;;18.90;65.50;;;;;;4898648;28;98850;-67
2022/04/15 11:22:44;;;;;;;21.52;4.00;;;18.90;65.60;;;;;;4910826;28;98443;-68
2022/04/15 11:25:14;;;;;;;20.33;4.40;;;18.90;65.50;;;;;;4910041;28;100528;-68
2022/04/15 11:27:41;;;;;;;23.40;4.22;;;18.90;65.50;;;;;;4909184;28;100052;-66
2022/04/15 11:30:16;;;;;;;25.13;4.47;;;18.80;65.50;;;;;;4909735;28;99376;-66
2022/04/15 11:32:47;;;;;;;28.23;4.72;;;18.90;65.50;;;;;;4909974;28;98502;-68
2022/04/15 11:35:26;;;;;;;21.63;4.43;;;18.80;65.10;;;;;;4909157;28;101264;-66
2022/04/15 11:37:55;;;;;;;17.27;3.90;;;18.80;64.80;;;;;;4909065;28;99271;-68
2022/04/15 11:40:21;;;;;;;14.90;3.70;;;18.80;64.70;;;;;;4910059;28;98864;-66
2022/04/15 11:42:47;;;;;;;22.77;3.63;;;18.80;64.60;;;;;;4909974;28;98826;-67
2022/04/15 11:45:13;;;;;;;12.02;3.28;;;18.80;64.50;;;;;;4908401;28;99110;-67
2022/04/15 11:47:40;;;;;;;11.80;3.35;;;18.80;64.30;;;;;;4908615;28;100916;-67
2022/04/15 11:50:06;;;;;;;10.48;3.38;;;18.80;64.00;;;;;;4909373;28;99672;-70
2022/04/15 11:52:32;;;;;;;15.00;3.53;;;18.90;63.90;;;;;;4909253;28;98986;-67
2022/04/15 11:54:59;;;;;;;11.20;3.55;;;18.90;63.70;;;;;;4909163;28;99432;-67
2022/04/15 11:57:29;;;;;;;14.63;3.60;;;18.90;63.50;;;;;;4908382;28;100828;-68
2022/04/15 11:59:54;;;;;;;13.95;3.15;;;18.90;63.40;;;;;;4909221;28;99130;-69
2022/04/15 12:02:23;;;;;;;8.25;3.55;;;18.90;63.30;;;;;;4908393;28;98988;-67
2022/04/15 12:04:50;;;;;;;10.30;3.75;;;18.90;63.10;;;;;;4908881;28;99163;-67
2022/04/15 12:07:17;;;;;;;11.52;3.30;;;18.90;62.90;;;;;;4908258;28;100218;-67
2022/04/15 12:09:45;;;;;;;9.43;3.28;;;18.90;62.80;;;;;;4909193;28;99109;-67
2022/04/15 12:12:10;;;;;;;8.75;3.25;;;19.00;62.60;;;;;;4908932;28;97895;-67
2022/04/15 12:14:37;;;;;;;16.90;3.80;;;19.00;62.50;;;;;;4908919;28;99864;-67
2022/04/15 12:17:04;;;;;;;11.98;3.50;;;19.00;62.40;;;;;;4908195;28;100011;-67
2022/04/15 12:19:29;;;;;;;17.02;3.83;;;19.00;62.20;;;;;;4907117;28;99985;-67
2022/04/15 12:21:55;;;;;;;9.57;3.80;;;19.00;62.10;;;;;;4908337;28;98659;-68
2022/04/15 12:24:22;;;;;;;11.95;3.20;;;19.00;62.00;;;;;;4906659;28;100299;-67
2022/04/15 12:26:52;;;;;;;9.52;3.40;;;19.00;62.90;;;;;;4908121;28;99555;-70
2022/04/15 12:32:15;;;;;;;9.30;3.70;;;19.10;61.70;;;;;;4911174;28;98592;-67
2022/04/15 12:34:46;;;;;;;9.30;3.17;;;19.00;61.50;;;;;;4911238;28;100540;-68
2022/04/15 12:37:59;;;;;;;8.15;3.30;;;19.10;61.50;;;;;;4911536;28;99484;-67
2022/04/15 12:40:26;;;;;;;11.13;3.50;;;19.10;61.40;;;;;;4813183;29;99071;-67
2022/04/15 12:42:53;;;;;;;7.13;3.22;;;19.10;61.40;;;;;;4814947;29;98934;-67
2022/04/15 12:45:21;;;;;;;10.57;3.17;;;19.10;61.20;;;;;;4865721;28;101823;-68
2022/04/15 12:48:03;;;;;;;5.93;3.05;;;19.10;61.00;;;;;;4911366;28;101441;-68
2022/04/15 12:50:33;;;;;;;9.53;3.20;;;19.10;60.80;;;;;;4912351;28;98868;-67
2022/04/15 12:53:11;;;;;;;10.68;3.45;;;19.10;60.90;;;;;;4913808;28;99050;-68
2022/04/15 12:55:37;;;;;;;10.00;3.67;;;19.10;60.90;;;;;;4915743;28;100302;-68
2022/04/15 12:58:16;;;;;;;8.38;3.42;;;19.10;60.80;;;;;;4915283;28;100145;-68
2022/04/15 13:00:41;;;;;;;8.68;3.50;;;19.10;60.80;;;;;;4914891;28;98665;-68
2022/04/15 13:03:09;;;;;;;10.02;3.45;;;19.10;60.80;;;;;;4911989;28;98217;-69
2022/04/15 13:05:35;;;;;;;7.10;3.30;;;19.10;60.70;;;;;;4910971;28;100244;-68
2022/04/15 13:08:00;;;;;;;6.63;3.53;;;19.10;60.60;;;;;;4910567;28;99984;-68
2022/04/15 13:10:26;;;;;;;7.55;3.38;;;19.10;60.50;;;;;;4910557;28;99350;-68
2022/04/15 13:12:52;;;;;;;8.70;3.30;;;19.10;60.50;;;;;;4911780;28;98645;-68
2022/04/15 13:15:17;;;;;;;8.02;3.78;;;19.10;60.40;;;;;;4910826;28;109122;-68
2022/04/15 13:17:44;;;;;;;8.10;3.03;;;19.10;60.40;;;;;;4910151;28;99909;-67
2022/04/15 13:20:11;;;;;;;11.57;3.17;;;19.10;60.30;;;;;;4910706;28;98982;-67
2022/04/15 13:22:45;;;;;;;13.63;3.65;;;19.10;60.30;;;;;;4910710;28;99157;-66
2022/04/15 13:25:10;;;;;;;12.82;3.40;;;19.10;60.80;;;;;;4909764;28;100218;-67
2022/04/15 13:27:36;;;;;;;5.95;3.30;;;19.20;61.10;;;;;;4910349;28;101358;-67
2022/04/15 13:30:03;;;;;;;9.52;3.47;;;19.10;61.10;;;;;;4911161;28;98922;-67
2022/04/15 13:32:29;;;;;;;9.07;3.80;;;19.20;61.10;;;;;;4910117;28;99022;-69
2022/04/15 13:34:54;;;;;;;10.68;3.63;;;19.20;61.10;;;;;;4909583;28;102953;-67
2022/04/15 13:37:21;;;;;;;6.53;3.28;;;19.20;61.10;;;;;;4909845;28;99498;-67
2022/04/15 13:39:47;;;;;;;12.50;3.92;;;19.20;61.20;;;;;;4908738;28;100306;-68
2022/04/15 13:42:13;;;;;;;9.48;3.08;;;19.20;61.20;;;;;;4911273;28;98498;-67
2022/04/15 13:44:39;;;;;;;7.38;3.47;;;19.30;61.20;;;;;;4910879;28;100750;-69
2022/04/15 13:47:04;;;;;;;8.40;3.15;;;19.30;60.70;;;;;;4910680;28;108734;-69
2022/04/15 13:49:32;;;;;;;6.97;3.22;;;19.30;60.40;;;;;;4910589;28;98733;-68